Time;durP1;ratioP1;P1;durP2;ratioP2;P2;SDS_P1;SDS_P2;PMS_P1;PMS_P2;Temp;Humidity;BMP_temperature;BMP_pressure;BME280_temperature;BME280_humidity;BME280_pressure;Samples;Min_cycle;Max_cycle;Signal;HPM_P1;HPM_P2
2022/10/05 00:01:22;;;;;;;5.40;4.53;;;14.90;71.10;;;-142.21;100.00;112049.66;5111650;28;20622;-69
2022/10/05 00:03:50;;;;;;;5.10;4.60;;;14.90;71.20;;;-142.21;100.00;112049.66;5093770;28;20454;-69
2022/10/05 00:06:17;;;;;;;5.27;4.30;;;14.90;71.20;;;-142.21;100.00;112049.66;5111965;28;20545;-69
2022/10/05 00:08:45;;;;;;;4.93;4.43;;;14.80;71.10;;;-142.21;100.00;112049.66;5110015;28;20479;-71
2022/10/05 00:11:14;;;;;;;5.20;4.70;;;14.80;71.20;;;-142.21;100.00;112049.66;5111488;28;20578;-69
2022/10/05 00:13:42;;;;;;;6.87;4.87;;;14.80;71.20;;;-142.21;100.00;112049.66;5110931;28;20953;-69
2022/10/05 00:16:19;;;;;;;7.07;4.37;;;14.90;71.40;;;-142.21;100.00;112049.66;5111398;28;20540;-68
2022/10/05 00:18:49;;;;;;;7.97;4.70;;;14.90;71.60;;;-142.21;100.00;112049.66;5116802;28;20441;-68
2022/10/05 00:21:23;;;;;;;8.53;4.93;;;14.90;71.60;;;-142.21;100.00;112049.66;5113825;28;20528;-68
2022/10/05 00:23:51;;;;;;;7.77;4.83;;;14.90;71.80;;;-142.21;100.00;112049.66;5100949;28;20466;-69
2022/10/05 00:26:23;;;;;;;5.90;5.10;;;14.90;71.60;;;-142.21;100.00;112049.66;5115057;27;20909;-69
2022/10/05 00:28:52;;;;;;;6.33;5.20;;;14.90;72.30;;;-142.21;100.00;112049.66;5114539;28;20461;-68
2022/10/05 00:31:23;;;;;;;4.90;4.40;;;14.80;71.60;;;-142.21;100.00;112049.66;5115134;28;20532;-69
2022/10/05 00:33:53;;;;;;;6.43;4.57;;;14.80;71.90;;;-142.21;100.00;112049.66;5114524;28;20421;-69
2022/10/05 00:36:21;;;;;;;7.30;5.00;;;14.80;71.70;;;-142.21;100.00;112049.66;5115696;27;20499;-69
2022/10/05 00:38:48;;;;;;;5.30;4.43;;;14.80;71.60;;;-142.21;100.00;112049.66;5113883;28;20476;-69
2022/10/05 00:41:23;;;;;;;6.40;5.07;;;14.80;71.70;;;-142.21;100.00;112049.66;5115260;28;20480;-69
2022/10/05 00:44:24;;;;;;;4.93;4.43;;;14.70;71.60;;;-142.21;100.00;112049.66;5114390;28;20429;-67
2022/10/05 00:47:02;;;;;;;6.60;4.40;;;14.70;71.70;;;-142.21;100.00;112049.66;5111999;27;20466;-68
2022/10/05 00:49:54;;;;;;;7.00;4.40;;;14.70;71.40;;;-142.21;100.00;112049.66;5115246;28;20778;-69
2022/10/05 00:52:37;;;;;;;5.77;4.30;;;14.70;71.20;;;-142.21;100.00;112049.66;5114781;28;20445;-69
2022/10/05 00:55:21;;;;;;;5.60;4.30;;;14.60;71.30;;;-142.21;100.00;112049.66;5114905;27;20437;-69
2022/10/05 00:58:07;;;;;;;7.27;4.03;;;14.50;72.10;;;-142.21;100.00;112049.66;5114338;28;20520;-69
2022/10/05 01:00:50;;;;;;;4.30;3.90;;;14.50;71.70;;;-142.21;100.00;112049.66;5114310;28;20793;-69
2022/10/05 01:03:28;;;;;;;5.73;4.20;;;14.50;71.30;;;-142.21;100.00;112049.66;5112821;28;20452;-69
2022/10/05 01:06:11;;;;;;;5.87;4.77;;;14.50;71.40;;;-142.21;100.00;112049.66;5114820;27;20813;-69
2022/10/05 01:08:50;;;;;;;5.03;4.40;;;14.40;71.60;;;-142.21;100.00;112049.66;5113787;28;20536;-68
2022/10/05 01:11:27;;;;;;;5.20;4.70;;;14.40;71.70;;;-142.21;100.00;112049.66;5094541;28;20433;-68
2022/10/05 01:14:07;;;;;;;4.77;4.37;;;14.40;71.90;;;-142.21;100.00;112049.66;5112615;28;20448;-69
2022/10/05 01:16:46;;;;;;;6.20;4.80;;;14.40;72.20;;;-142.21;100.00;112049.66;5122446;27;20438;-69
2022/10/05 01:19:53;;;;;;;4.93;4.33;;;14.30;72.20;;;-142.21;100.00;112049.66;5089657;28;20436;-69
2022/10/05 01:22:41;;;;;;;4.07;3.67;;;14.40;71.90;;;-142.21;100.00;112049.66;5114115;28;20477;-68
2022/10/05 01:25:25;;;;;;;3.80;3.40;;;14.30;71.30;;;-142.21;100.00;112049.66;5122742;27;20935;-68
2022/10/05 01:28:04;;;;;;;3.83;3.53;;;14.30;72.20;;;-142.21;100.00;112049.66;5121912;27;20461;-68
2022/10/05 01:30:42;;;;;;;5.27;3.90;;;14.20;72.30;;;-142.21;100.00;112049.66;5114196;28;20509;-69
2022/10/05 01:33:21;;;;;;;4.73;3.33;;;14.10;72.30;;;-142.21;100.00;112049.66;5113017;28;20920;-69
2022/10/05 01:36:00;;;;;;;3.93;3.60;;;14.10;72.40;;;-142.21;100.00;112049.66;5122292;27;20443;-67
2022/10/05 01:38:46;;;;;;;3.87;3.47;;;14.10;72.60;;;-142.21;100.00;112049.66;5095212;28;20472;-69
2022/10/05 01:41:32;;;;;;;4.07;3.67;;;13.90;73.40;;;-142.21;100.00;112049.66;5113619;28;20444;-69
2022/10/05 01:44:10;;;;;;;3.90;3.60;;;13.80;73.40;;;-142.21;100.00;112049.66;5112834;28;20774;-69
2022/10/05 01:46:43;;;;;;;4.47;4.07;;;13.90;73.30;;;-142.21;100.00;112049.66;5095992;28;20566;-70
2022/10/05 01:49:31;;;;;;;4.67;3.37;;;13.90;72.80;;;-142.21;100.00;112049.66;5113396;28;20441;-69
2022/10/05 01:52:13;;;;;;;5.57;3.83;;;13.90;72.90;;;-142.21;100.00;112049.66;5113291;28;20971;-69
2022/10/05 01:54:59;;;;;;;4.67;3.60;;;13.90;73.00;;;-142.21;100.00;112049.66;5117515;27;20432;-69
2022/10/05 01:57:40;;;;;;;4.43;4.03;;;13.90;72.90;;;-142.21;100.00;112049.66;5120023;27;20452;-67
2022/10/05 02:00:13;;;;;;;4.97;3.73;;;13.90;72.60;;;-142.21;100.00;112049.66;5113351;28;20524;-67
2022/10/05 02:02:45;;;;;;;4.07;3.67;;;13.90;72.30;;;-142.21;100.00;112049.66;5093173;28;20434;-68
2022/10/05 02:05:21;;;;;;;5.83;3.63;;;13.90;72.20;;;-142.21;100.00;112049.66;5109709;27;20434;-68
2022/10/05 02:07:57;;;;;;;5.37;4.13;;;13.90;72.20;;;-142.21;100.00;112049.66;5112780;28;20986;-69
2022/10/05 02:10:31;;;;;;;5.90;3.53;;;13.90;72.10;;;-142.21;100.00;112049.66;5113110;28;20555;-69
2022/10/05 02:13:05;;;;;;;5.20;3.83;;;13.90;72.20;;;-142.21;100.00;112049.66;5112397;28;20483;-69
2022/10/05 02:15:42;;;;;;;4.47;3.63;;;13.80;72.10;;;-142.21;100.00;112049.66;5113487;27;20437;-69
2022/10/05 02:18:17;;;;;;;6.53;4.03;;;13.80;72.00;;;-142.21;100.00;112049.66;5113560;27;20434;-69
2022/10/05 02:20:46;;;;;;;4.67;3.30;;;13.80;72.00;;;-142.21;100.00;112049.66;5112779;28;20438;-69
2022/10/05 02:23:19;;;;;;;4.70;3.80;;;13.80;72.10;;;-142.21;100.00;112049.66;5112765;28;20813;-69
2022/10/05 02:25:51;;;;;;;5.83;3.60;;;13.80;72.20;;;-142.21;100.00;112049.66;5108818;27;20433;-69
2022/10/05 02:28:25;;;;;;;4.10;3.77;;;13.70;72.60;;;-142.21;100.00;112049.66;5123612;27;20984;-69
2022/10/05 02:31:00;;;;;;;3.60;3.30;;;13.60;72.90;;;-142.21;100.00;112049.66;5112648;28;20460;-69
2022/10/05 02:33:31;;;;;;;3.90;3.50;;;13.50;73.20;;;-142.21;100.00;112049.66;5112967;28;20444;-68
2022/10/05 02:36:10;;;;;;;3.67;3.37;;;13.50;73.30;;;-142.21;100.00;112049.66;5112312;27;20434;-68
2022/10/05 02:39:01;;;;;;;3.80;3.30;;;13.50;73.00;;;-142.21;100.00;112049.66;5112869;28;20479;-68
2022/10/05 02:41:48;;;;;;;4.20;3.80;;;13.50;72.90;;;-142.21;100.00;112049.66;5109171;28;20457;-68
2022/10/05 02:44:31;;;;;;;5.13;3.60;;;13.50;72.80;;;-142.21;100.00;112049.66;5076503;28;20442;-69
2022/10/05 02:47:10;;;;;;;5.13;3.50;;;13.50;72.90;;;-142.21;100.00;112049.66;5105642;28;20512;-68
2022/10/05 02:49:47;;;;;;;3.93;3.47;;;13.50;72.60;;;-142.21;100.00;112049.66;5111476;28;20464;-68
2022/10/05 02:52:25;;;;;;;4.30;3.40;;;13.50;72.30;;;-142.21;100.00;112049.66;5112687;28;20525;-68
2022/10/05 02:55:12;;;;;;;4.03;3.63;;;13.50;72.10;;;-142.21;100.00;112049.66;5111201;28;20436;-68
2022/10/05 02:57:46;;;;;;;7.70;3.90;;;13.50;72.10;;;-142.21;100.00;112049.66;5062439;28;20541;-68
2022/10/05 03:00:18;;;;;;;3.50;3.20;;;13.50;72.00;;;-142.21;100.00;112049.66;5112858;28;20434;-68
2022/10/05 03:02:58;;;;;;;4.17;3.77;;;13.40;72.00;;;-142.21;100.00;112049.66;5111767;28;20461;-69
2022/10/05 03:05:31;;;;;;;4.20;3.80;;;13.30;72.50;;;-142.21;100.00;112049.66;5113050;28;20438;-68
2022/10/05 03:08:07;;;;;;;4.30;3.80;;;13.20;73.20;;;-142.21;100.00;112049.66;5112014;28;20604;-68
2022/10/05 03:10:43;;;;;;;4.33;3.70;;;13.10;73.80;;;-142.21;100.00;112049.66;5112568;28;20788;-68
2022/10/05 03:13:23;;;;;;;4.80;3.90;;;13.10;74.10;;;-142.21;100.00;112049.66;5112379;28;20462;-68
2022/10/05 03:16:39;;;;;;;4.47;3.57;;;13.00;74.20;;;-142.21;100.00;112049.66;5123532;27;20439;-68
2022/10/05 03:19:27;;;;;;;4.10;3.70;;;13.00;74.40;;;-142.21;100.00;112049.66;5088754;27;20932;-67
2022/10/05 03:22:08;;;;;;;4.23;3.87;;;13.10;74.00;;;-142.21;100.00;112049.66;5132463;27;20417;-69
2022/10/05 03:24:57;;;;;;;5.00;4.10;;;13.20;74.10;;;-142.21;100.00;112049.66;5130277;27;20524;-69
2022/10/05 03:27:37;;;;;;;4.73;4.33;;;13.10;75.00;;;-142.21;100.00;112049.66;5112267;28;20545;-69
2022/10/05 03:30:13;;;;;;;6.67;4.60;;;13.10;75.80;;;-142.21;100.00;112049.66;5111460;28;20487;-69
2022/10/05 03:32:58;;;;;;;5.33;4.83;;;13.10;76.40;;;-142.21;100.00;112049.66;5110212;28;20440;-68
2022/10/05 03:35:35;;;;;;;4.37;3.97;;;13.10;77.20;;;-142.21;100.00;112049.66;5118279;27;20437;-68
2022/10/05 03:38:15;;;;;;;4.77;4.27;;;13.00;77.70;;;-142.21;100.00;112049.66;5111417;28;20834;-68
2022/10/05 03:40:50;;;;;;;6.30;5.10;;;12.90;77.90;;;-142.21;100.00;112049.66;5110799;28;20651;-68
2022/10/05 03:43:41;;;;;;;5.77;4.57;;;12.80;78.50;;;-142.21;100.00;112049.66;5112000;28;20799;-67
2022/10/05 03:46:24;;;;;;;7.40;4.60;;;12.80;79.50;;;-142.21;100.00;112049.66;5111357;27;20441;-69
2022/10/05 03:49:17;;;;;;;5.03;4.50;;;12.80;80.00;;;-142.21;100.00;112049.66;5111179;28;20470;-69
2022/10/05 03:51:51;;;;;;;6.50;4.67;;;12.70;79.00;;;-142.21;100.00;112049.66;5111408;28;20438;-68
2022/10/05 03:54:28;;;;;;;5.43;4.87;;;12.80;79.10;;;-142.21;100.00;112049.66;5111440;28;20430;-68
2022/10/05 03:57:02;;;;;;;5.60;4.50;;;12.80;79.10;;;-142.21;100.00;112049.66;5118343;28;20438;-68
2022/10/05 03:59:38;;;;;;;7.17;4.73;;;12.80;78.90;;;-142.21;100.00;112049.66;5111723;28;20433;-68
2022/10/05 04:02:15;;;;;;;6.63;4.73;;;12.90;78.20;;;-142.21;100.00;112049.66;5110908;28;20440;-68
2022/10/05 04:04:52;;;;;;;4.90;4.40;;;12.90;78.50;;;-142.21;100.00;112049.66;5061918;28;20434;-68
2022/10/05 04:07:42;;;;;;;5.90;4.37;;;13.00;78.20;;;-142.21;100.00;112049.66;5111527;28;20471;-68
2022/10/05 04:10:20;;;;;;;5.80;5.20;;;12.90;78.80;;;-142.21;100.00;112049.66;5110928;28;20433;-67
2022/10/05 04:12:54;;;;;;;8.20;4.80;;;12.90;78.40;;;-142.21;100.00;112049.66;5111216;28;20434;-68
2022/10/05 04:15:32;;;;;;;5.80;5.20;;;12.90;78.30;;;-142.21;100.00;112049.66;5118185;28;20532;-67
2022/10/05 04:18:25;;;;;;;5.33;4.17;;;12.90;78.20;;;-142.21;100.00;112049.66;5078248;28;20532;-67
2022/10/05 04:20:59;;;;;;;5.37;4.80;;;13.00;77.60;;;-142.21;100.00;112049.66;5110567;28;20939;-69
2022/10/05 04:23:42;;;;;;;5.57;4.77;;;13.00;77.20;;;-142.21;100.00;112049.66;5111568;28;20788;-69
2022/10/05 04:26:18;;;;;;;5.07;4.57;;;13.00;77.30;;;-142.21;100.00;112049.66;5110888;28;20528;-68
2022/10/05 04:28:54;;;;;;;7.80;4.97;;;13.10;77.10;;;-142.21;100.00;112049.66;5111320;28;20481;-68
2022/10/05 04:31:54;;;;;;;6.13;3.90;;;13.10;76.80;;;-142.21;100.00;112049.66;5110815;28;20440;-68
2022/10/05 04:35:15;;;;;;;5.50;4.03;;;13.20;76.60;;;-142.21;100.00;112049.66;5111024;28;20465;-67
2022/10/05 04:37:54;;;;;;;6.03;4.27;;;13.20;76.20;;;-142.21;100.00;112049.66;5105509;28;20475;-66
2022/10/05 04:40:51;;;;;;;5.73;4.30;;;13.10;75.70;;;-142.21;100.00;112049.66;5110794;28;20477;-67
2022/10/05 04:43:30;;;;;;;6.63;4.17;;;13.10;75.70;;;-142.21;100.00;112049.66;5098931;28;20864;-66
2022/10/05 04:46:23;;;;;;;4.30;3.87;;;13.10;75.80;;;-142.21;100.00;112049.66;5111014;28;20559;-67
2022/10/05 04:49:19;;;;;;;5.40;3.97;;;13.00;76.20;;;-142.21;100.00;112049.66;5110707;28;20465;-67
2022/10/05 04:51:58;;;;;;;4.97;4.47;;;13.00;76.40;;;-142.21;100.00;112049.66;5110619;28;20438;-67
2022/10/05 04:54:50;;;;;;;4.33;3.93;;;12.80;76.30;;;-142.21;100.00;112049.66;5111290;28;20433;-67
2022/10/05 04:57:27;;;;;;;4.70;4.20;;;12.70;77.10;;;-142.21;100.00;112049.66;5107613;28;20448;-67
2022/10/05 05:00:09;;;;;;;8.07;4.40;;;12.60;77.20;;;-142.21;100.00;112049.66;5095278;28;20429;-66
2022/10/05 05:03:03;;;;;;;5.97;4.07;;;12.50;77.50;;;-142.21;100.00;112049.66;5088163;28;20434;-67
2022/10/05 05:05:43;;;;;;;5.20;4.00;;;12.50;78.40;;;-142.21;100.00;112049.66;5116006;28;20516;-67
2022/10/05 05:08:49;;;;;;;4.87;4.07;;;12.50;77.60;;;-142.21;100.00;112049.66;5122668;27;20569;-67
2022/10/05 05:11:30;;;;;;;4.60;4.10;;;12.60;77.20;;;-142.21;100.00;112049.66;5038900;28;20881;-66
2022/10/05 05:14:25;;;;;;;5.80;3.87;;;12.70;77.20;;;-142.21;100.00;112049.66;5113670;28;20972;-68
2022/10/05 05:17:08;;;;;;;4.73;4.17;;;12.70;76.70;;;-142.21;100.00;112049.66;5127946;27;20436;-68
2022/10/05 05:19:50;;;;;;;5.53;4.07;;;12.80;76.00;;;-142.21;100.00;112049.66;5114118;28;20580;-68
2022/10/05 05:22:32;;;;;;;5.27;4.50;;;12.80;76.40;;;-142.21;100.00;112049.66;5114713;28;20418;-68
2022/10/05 05:25:21;;;;;;;4.90;4.50;;;12.70;76.70;;;-142.21;100.00;112049.66;5113433;27;21026;-68
2022/10/05 05:27:54;;;;;;;7.67;4.90;;;12.70;76.50;;;-142.21;100.00;112049.66;5094095;28;20907;-68
2022/10/05 05:30:35;;;;;;;5.93;4.93;;;12.80;76.20;;;-142.21;100.00;112049.66;5119047;27;20541;-68
2022/10/05 05:33:20;;;;;;;5.83;4.20;;;12.80;76.00;;;-142.21;100.00;112049.66;5114004;28;20444;-68
2022/10/05 05:36:18;;;;;;;8.33;4.33;;;12.80;75.40;;;-142.21;100.00;112049.66;5102248;28;20434;-69
2022/10/05 05:39:01;;;;;;;4.33;3.93;;;12.80;75.40;;;-142.21;100.00;112049.66;5111565;27;20476;-68
2022/10/05 05:41:37;;;;;;;4.43;4.03;;;12.90;75.50;;;-142.21;100.00;112049.66;5119371;27;20473;-69
2022/10/05 05:44:20;;;;;;;5.33;4.77;;;12.90;75.40;;;-142.21;100.00;112049.66;5112730;28;20438;-68
2022/10/05 05:46:59;;;;;;;5.17;4.67;;;12.90;75.50;;;-142.21;100.00;112049.66;5113949;28;20429;-68
2022/10/05 05:49:45;;;;;;;5.03;4.23;;;13.00;75.60;;;-142.21;100.00;112049.66;5112017;27;20988;-67
2022/10/05 05:52:22;;;;;;;8.17;4.23;;;13.00;75.30;;;-142.21;100.00;112049.66;5113369;28;20830;-67
2022/10/05 05:54:57;;;;;;;5.43;4.03;;;13.00;75.30;;;-142.21;100.00;112049.66;5113779;28;20520;-67
2022/10/05 05:57:33;;;;;;;5.93;4.40;;;13.00;75.10;;;-142.21;100.00;112049.66;5113480;28;20520;-68
2022/10/05 06:00:16;;;;;;;4.20;3.80;;;13.00;75.10;;;-142.21;100.00;112049.66;5118056;27;20433;-68
2022/10/05 06:02:54;;;;;;;5.07;4.20;;;13.00;75.00;;;-142.21;100.00;112049.66;5114519;27;20438;-68
2022/10/05 06:05:31;;;;;;;6.03;4.70;;;13.10;75.00;;;-142.21;100.00;112049.66;5113137;28;20444;-68
2022/10/05 06:08:07;;;;;;;5.10;4.30;;;13.10;75.10;;;-142.21;100.00;112049.66;5112586;28;20489;-67
2022/10/05 06:10:44;;;;;;;5.30;4.57;;;13.10;74.90;;;-142.21;100.00;112049.66;5108083;28;20437;-68
2022/10/05 06:13:20;;;;;;;5.03;4.60;;;13.10;75.20;;;-142.21;100.00;112049.66;5112467;28;20525;-68
2022/10/05 06:15:53;;;;;;;7.73;4.03;;;13.10;75.20;;;-142.21;100.00;112049.66;5112995;28;20429;-69
2022/10/05 06:18:23;;;;;;;6.83;4.43;;;13.20;75.10;;;-142.21;100.00;112049.66;5112743;27;20440;-69
2022/10/05 06:21:00;;;;;;;6.43;4.40;;;13.20;75.10;;;-142.21;100.00;112049.66;5113142;28;20529;-68
2022/10/05 06:23:38;;;;;;;4.87;4.07;;;13.30;75.10;;;-142.21;100.00;112049.66;5113687;28;20426;-68
2022/10/05 06:26:30;;;;;;;7.13;4.30;;;13.30;75.20;;;-142.21;100.00;112049.66;5112654;28;20445;-68
2022/10/05 06:29:04;;;;;;;5.67;4.27;;;13.30;75.40;;;-142.21;100.00;112049.66;5065114;28;20985;-69
2022/10/05 06:32:06;;;;;;;7.50;5.10;;;13.30;76.40;;;-142.21;100.00;112049.66;5113171;28;20430;-70
2022/10/05 06:35:01;;;;;;;8.40;5.20;;;13.30;76.20;;;-142.21;100.00;112049.66;5112472;28;20461;-68
2022/10/05 06:37:55;;;;;;;6.43;5.50;;;13.30;77.00;;;-142.21;100.00;112049.66;5063035;28;20441;-68
2022/10/05 06:40:38;;;;;;;7.67;4.83;;;13.30;77.90;;;-142.21;100.00;112049.66;5113594;27;20560;-68
2022/10/05 06:43:46;;;;;;;7.50;4.90;;;13.30;78.50;;;-142.21;100.00;112049.66;5131139;27;20432;-69
2022/10/05 06:46:22;;;;;;;5.30;4.40;;;13.30;78.50;;;-142.21;100.00;112049.66;5092022;28;20509;-70
2022/10/05 06:49:19;;;;;;;5.33;4.37;;;13.40;78.20;;;-142.21;100.00;112049.66;5087992;28;20818;-70
2022/10/05 06:51:56;;;;;;;5.27;4.40;;;13.60;78.40;;;-142.21;100.00;112049.66;5113055;28;20445;-71
2022/10/05 06:54:43;;;;;;;5.03;4.63;;;13.70;78.50;;;-142.21;100.00;112049.66;5112296;28;20440;-68
2022/10/05 06:57:31;;;;;;;5.20;4.60;;;13.80;78.70;;;-142.21;100.00;112049.66;5112484;28;20513;-69
2022/10/05 07:00:04;;;;;;;5.13;4.60;;;13.90;78.60;;;-142.21;100.00;112049.66;5126035;27;20515;-69
2022/10/05 07:02:48;;;;;;;8.00;5.10;;;14.00;79.00;;;-142.21;100.00;112049.66;5132763;27;20425;-68
2022/10/05 07:05:56;;;;;;;5.57;4.87;;;14.10;79.30;;;-142.21;100.00;112049.66;5113950;27;20496;-70
2022/10/05 07:08:45;;;;;;;7.03;5.90;;;14.10;79.70;;;-142.21;100.00;112049.66;5111951;27;20572;-69
2022/10/05 07:11:33;;;;;;;5.43;4.90;;;14.20;80.10;;;-142.21;100.00;112049.66;5111829;28;20426;-70
2022/10/05 07:14:19;;;;;;;5.77;5.17;;;14.20;80.40;;;-142.21;100.00;112049.66;5112197;28;20422;-71
2022/10/05 07:17:05;;;;;;;6.80;5.20;;;14.30;80.80;;;-142.21;100.00;112049.66;5111914;28;20440;-72
2022/10/05 07:19:45;;;;;;;9.57;6.17;;;14.40;81.60;;;-142.21;100.00;112049.66;5122038;27;20429;-68
2022/10/05 07:22:40;;;;;;;8.80;6.10;;;14.50;81.80;;;-142.21;100.00;112049.66;5118967;27;20438;-69
2022/10/05 07:25:17;;;;;;;12.80;7.30;;;14.50;82.20;;;-142.21;100.00;112049.66;5111133;28;20525;-70
2022/10/05 07:27:57;;;;;;;13.70;7.37;;;14.70;82.20;;;-142.21;100.00;112049.66;5115606;27;20530;-70
2022/10/05 07:30:25;;;;;;;8.13;6.67;;;14.80;82.60;;;-142.21;100.00;112049.66;5111087;28;20830;-70
2022/10/05 07:33:04;;;;;;;7.80;6.40;;;15.00;82.60;;;-142.21;100.00;112049.66;5111625;28;20498;-70
2022/10/05 07:38:40;;;;;;;10.37;8.00;;;15.20;82.90;;;-142.21;100.00;112049.66;5110921;28;20816;-69
2022/10/05 07:41:19;;;;;;;9.97;6.60;;;15.30;82.90;;;-142.21;100.00;112049.66;5100699;28;20438;-70
2022/10/05 07:43:55;;;;;;;9.30;6.70;;;15.40;83.30;;;-142.21;100.00;112049.66;5111928;28;20429;-71
2022/10/05 07:46:41;;;;;;;7.10;6.40;;;15.50;82.70;;;-142.21;100.00;112049.66;5113064;28;20433;-70
2022/10/05 07:49:23;;;;;;;7.60;6.80;;;15.60;82.50;;;-142.21;100.00;112049.66;5111142;28;20466;-71
2022/10/05 07:51:57;;;;;;;8.63;6.73;;;15.70;82.50;;;-142.21;100.00;112049.66;5111852;28;20486;-70
2022/10/05 07:54:30;;;;;;;7.53;6.60;;;15.80;82.00;;;-142.21;100.00;112049.66;5112108;28;20429;-70
2022/10/05 07:57:15;;;;;;;7.20;6.20;;;15.90;81.60;;;-142.21;100.00;112049.66;5111669;28;20442;-70
2022/10/05 07:59:53;;;;;;;7.03;6.33;;;16.00;81.60;;;-142.21;100.00;112049.66;5110980;28;20460;-70
2022/10/05 08:02:28;;;;;;;6.73;6.03;;;16.10;81.30;;;-142.21;100.00;112049.66;5111405;28;20434;-71
2022/10/05 08:05:03;;;;;;;6.57;5.97;;;16.20;81.10;;;-142.21;100.00;112049.66;5111495;28;20433;-70
2022/10/05 08:07:35;;;;;;;10.87;6.13;;;16.30;81.10;;;-142.21;100.00;112049.66;5126806;28;20471;-70
2022/10/05 08:10:26;;;;;;;7.77;6.13;;;16.50;80.60;;;-142.21;100.00;112049.66;5111885;28;20794;-70
2022/10/05 08:13:07;;;;;;;7.57;6.13;;;16.70;80.40;;;-142.21;100.00;112049.66;5110969;28;20900;-70
2022/10/05 08:15:41;;;;;;;7.17;5.63;;;16.80;80.00;;;-142.21;100.00;112049.66;5111840;28;20479;-70
2022/10/05 08:18:23;;;;;;;7.07;6.37;;;17.00;80.50;;;-142.21;100.00;112049.66;5111436;28;20442;-70
2022/10/05 08:20:56;;;;;;;7.73;6.63;;;17.20;79.90;;;-142.21;100.00;112049.66;5111480;28;20414;-70
2022/10/05 08:23:34;;;;;;;6.90;6.03;;;17.30;79.60;;;-142.21;100.00;112049.66;5058635;28;20437;-71
2022/10/05 08:26:16;;;;;;;8.10;6.67;;;17.40;78.90;;;-142.21;100.00;112049.66;5094832;28;20433;-69
2022/10/05 08:28:59;;;;;;;10.00;6.10;;;17.40;78.60;;;-142.21;100.00;112049.66;5115012;28;20903;-70
2022/10/05 08:31:32;;;;;;;8.07;6.57;;;17.50;79.10;;;-142.21;100.00;112049.66;5112444;28;20438;-70
2022/10/05 08:34:21;;;;;;;7.00;6.33;;;17.70;78.50;;;-142.21;100.00;112049.66;5111544;28;20449;-69
2022/10/05 08:37:02;;;;;;;7.73;6.00;;;17.80;78.20;;;-142.21;100.00;112049.66;5112571;28;20524;-69
2022/10/05 08:39:38;;;;;;;8.00;5.37;;;18.00;77.50;;;-142.21;100.00;112049.66;5090700;28;20581;-70
2022/10/05 08:42:58;;;;;;;5.63;5.13;;;18.10;77.50;;;-142.21;100.00;112049.66;5103345;27;20437;-70
2022/10/05 08:46:02;;;;;;;6.43;5.23;;;18.30;77.20;;;-142.21;100.00;112049.66;5094559;28;20501;-70
2022/10/05 08:48:58;;;;;;;7.97;5.43;;;18.40;76.60;;;-142.21;100.00;112049.66;5105928;28;20850;-69
2022/10/05 08:52:16;;;;;;;6.20;5.00;;;18.60;75.70;;;-142.21;100.00;112049.66;5062125;28;20449;-69
2022/10/05 08:55:35;;;;;;;6.60;5.07;;;18.70;75.30;;;-142.21;100.00;112049.66;5070619;28;20537;-69
2022/10/05 08:58:46;;;;;;;5.50;4.93;;;18.80;75.40;;;-142.21;100.00;112049.66;5099393;28;20449;-70
2022/10/05 09:01:26;;;;;;;5.87;5.30;;;19.10;74.70;;;-142.21;100.00;112049.66;5114317;28;20441;-70
2022/10/05 09:04:42;;;;;;;4.97;4.40;;;19.20;74.20;;;-142.21;100.00;112049.66;5115396;28;20769;-70
2022/10/05 09:07:27;;;;;;;5.17;4.67;;;19.40;73.90;;;-142.21;99.25;112049.66;5121360;27;20199;-70
2022/10/05 09:10:58;;;;;;;9.60;4.47;;;19.50;71.70;;;-142.21;100.00;112049.66;5135854;27;20653;-70
2022/10/05 09:14:21;;;;;;;4.93;3.90;;;19.70;72.10;;;-142.21;99.14;112049.66;5134577;27;20263;-69
2022/10/05 09:17:02;;;;;;;4.80;4.10;;;19.90;71.40;;;-142.21;98.19;112049.66;5134968;27;20199;-69
2022/10/05 09:20:04;;;;;;;6.27;3.83;;;20.10;70.70;;;-142.21;98.56;112049.66;5135341;27;20270;-70
2022/10/05 09:23:12;;;;;;;3.60;3.23;;;20.30;70.50;;;-142.21;96.72;112049.66;5135091;27;20278;-71
2022/10/05 09:25:54;;;;;;;3.87;3.57;;;20.60;70.00;;;-142.21;96.73;112049.66;5124600;27;20252;-69
2022/10/05 09:28:29;;;;;;;7.00;3.67;;;20.80;69.50;;;-142.21;93.53;112049.66;5134220;27;20230;-70
2022/10/05 09:31:23;;;;;;;4.53;3.17;;;21.00;68.20;;;-142.21;93.68;112049.66;5135461;27;20298;-69
2022/10/05 09:34:33;;;;;;;4.33;3.33;;;21.00;67.00;;;-142.21;93.10;112049.66;5118196;27;20249;-70
2022/10/05 09:37:39;;;;;;;3.40;3.10;;;21.10;66.40;;;-142.21;92.73;112049.66;5135160;27;20552;-69
2022/10/05 09:41:02;;;;;;;3.40;3.10;;;21.30;67.50;;;-142.21;91.95;112049.66;5133828;27;20233;-70
2022/10/05 09:44:35;;;;;;;3.90;3.17;;;21.50;65.90;;;-142.21;90.87;112049.66;5134387;27;20639;-69
2022/10/05 09:47:37;;;;;;;3.70;3.23;;;21.70;65.70;;;-142.21;89.40;112049.66;5134556;27;20190;-70
2022/10/05 09:50:55;;;;;;;3.37;3.07;;;21.80;64.10;;;-142.21;88.58;112049.66;5050308;28;20234;-70
2022/10/05 09:54:24;;;;;;;3.60;3.00;;;22.00;64.30;;;-142.21;88.69;112049.66;5092237;28;20276;-69
2022/10/05 09:57:52;;;;;;;3.80;3.43;;;22.10;63.70;;;-142.21;88.25;112049.66;5093661;28;20199;-69
2022/10/05 10:00:45;;;;;;;3.50;3.20;;;22.30;63.60;;;-142.21;85.09;112049.66;4963592;28;20204;-70
2022/10/05 10:04:17;;;;;;;4.10;3.10;;;22.50;62.70;;;-142.21;86.33;112049.66;4990846;28;20219;-70
2022/10/05 10:07:42;;;;;;;3.27;2.93;;;22.60;62.70;;;-142.21;83.23;112049.66;5093267;28;20231;-69
2022/10/05 10:10:51;;;;;;;3.43;3.13;;;22.90;61.70;;;-142.21;83.77;112049.66;5092539;28;20216;-70
2022/10/05 10:13:52;;;;;;;2.90;2.70;;;22.90;61.20;;;-142.21;80.71;112049.66;5091449;28;20205;-70
2022/10/05 10:16:40;;;;;;;3.83;3.00;;;23.10;60.00;;;-142.21;80.66;112049.66;5092641;28;20618;-70
2022/10/05 10:19:27;;;;;;;4.10;3.10;;;23.20;60.40;;;-142.21;78.56;112049.66;5092947;28;20292;-69
2022/10/05 10:22:28;;;;;;;4.20;2.80;;;23.30;59.80;;;-142.21;78.94;112049.66;5093609;28;20276;-70
2022/10/05 10:25:24;;;;;;;3.13;2.83;;;23.40;59.40;;;-142.21;79.71;112049.66;5092896;28;20245;-70
2022/10/05 10:28:14;;;;;;;3.87;2.70;;;23.50;59.50;;;-142.21;77.77;112049.66;5092964;28;20191;-69
2022/10/05 10:31:11;;;;;;;6.63;3.00;;;23.50;58.80;;;-142.21;76.13;112049.66;5092701;28;20361;-69
2022/10/05 10:34:08;;;;;;;3.43;2.47;;;23.50;58.30;;;-142.21;80.76;112049.66;5092807;28;20196;-70
2022/10/05 10:37:10;;;;;;;4.10;3.00;;;23.50;59.80;;;-142.21;76.54;112049.66;5093137;28;20288;-71
2022/10/05 10:40:07;;;;;;;2.73;2.43;;;23.70;58.60;;;-142.21;76.35;112049.66;5092295;28;20270;-69
2022/10/05 10:42:46;;;;;;;4.27;2.70;;;23.80;59.20;;;-142.21;74.92;112049.66;5076838;28;20193;-70
2022/10/05 10:45:37;;;;;;;3.00;2.70;;;24.10;58.80;;;-142.21;73.78;112049.66;5092226;28;20195;-69
2022/10/05 10:48:11;;;;;;;2.90;2.60;;;24.20;58.10;;;-142.21;74.16;112049.66;5100211;28;20199;-70
2022/10/05 10:51:20;;;;;;;3.87;3.27;;;24.30;58.30;;;-142.21;72.63;112049.66;5113205;28;20226;-70
2022/10/05 10:54:34;;;;;;;2.80;2.47;;;24.50;57.70;;;-142.21;73.31;112049.66;5073400;28;20235;-69
2022/10/05 10:57:32;;;;;;;3.13;2.30;;;24.70;57.20;;;-142.21;72.44;112049.66;5068399;28;20541;-71
2022/10/05 11:00:43;;;;;;;4.83;3.10;;;24.80;57.30;;;-142.21;69.04;112049.66;5112935;28;20523;-71
2022/10/05 11:04:07;;;;;;;3.50;2.63;;;24.90;55.80;;;-142.21;67.36;112049.66;5103249;28;20686;-70
2022/10/05 11:07:24;;;;;;;4.43;3.20;;;24.90;55.50;;;-142.21;70.96;112049.66;5112577;28;20265;-70
2022/10/05 11:10:30;;;;;;;5.50;3.07;;;24.80;56.70;;;-142.21;68.17;112049.66;5111998;28;20652;-70
2022/10/05 11:14:01;;;;;;;2.40;2.20;;;25.00;56.40;;;-142.21;71.62;112049.66;5112322;28;20195;-70